Latest Coastal Weather Observations for Lombadina

IDW60701

Issued at 3:52 am WST Wednesday 1 July 2015 (issued every 10 minutes, with the page automatically refreshed every 10 minutes)

About coastal observations | Map of coastal stations | Coastal observations for WA | Marine services | Other Formats
Station Details ID: 503016 Name: LOMBADINA AIRSTRIP Lat: -16.52 Lon: 122.92 Height: 42.0 m
Data from the previous 72 hours. | See also: Recent months for locations in Western Australia
Date/Time
WST
Temp

°C
Wind Pressure Rain
since 9am
mm
Weather Cloud Vis
km
Sea
Height
m
Swell
Dir
 
Speed
knots
Gust
knots
hPa Trend Height
m
Period
s
Dir
01/03:30am 19.9 SSE 3 6 1017.7 - 0.0 - - 10 - - - -
01/03:00am 19.5 SSE 3 6 1017.7 - 0.0 - - 10 - - - -
01/02:30am 20.0 SSE 3 5 1017.8 - 0.0 - - 10 - - - -
01/02:00am 20.3 SSE 4 7 1018.0 - 0.0 - - 10 - - - -
01/01:30am 20.9 SSE 4 7 1018.2 - 0.0 - - 10 - - - -
01/01:00am 21.1 S 3 6 1018.3 - 0.0 - - 10 - - - -
01/12:30am 20.5 S 3 5 1018.5 - 0.0 - - 10 - - - -
01/12:00am 19.7 S 3 5 1018.5 - 0.0 - - 10 - - - -
 
Date/Time
WST
Temp

°C
Wind Pressure Rain
since 9am
mm
Weather Cloud Vis
km
Sea
Height
m
Swell
Dir
 
Speed
knots
Gust
knots
hPa Trend Height
m
Period
s
Dir
30/11:30pm 20.6 S 3 7 1018.4 - 0.0 - - 10 - - - -
30/11:00pm 20.1 S 3 4 1018.4 - 0.0 - - 10 - - - -
30/10:30pm 18.7 S 2 4 1018.4 - 0.0 - - 10 - - - -
30/10:00pm 19.1 S 1 3 1018.5 - 0.0 - - 10 - - - -
30/09:30pm 18.9 S 2 3 1018.5 - 0.0 - - 10 - - - -
30/09:00pm 19.1 S 2 4 1018.5 - 0.0 - - 10 - - - -
30/08:30pm 19.0 S 2 4 1018.3 - 0.0 - - 10 - - - -
30/08:00pm 19.0 S 2 4 1018.2 - 0.0 - - 10 - - - -
30/07:30pm 20.2 S 1 2 1017.9 - 0.0 - - 10 - - - -
30/07:00pm 19.8 S 2 3 1017.7 - 0.0 - - 10 - - - -
30/06:30pm 20.9 SSE 3 5 1017.3 - 0.0 - - 10 - - - -
30/06:00pm 21.0 SSE 3 4 1017.0 - 0.0 - - 10 - - - -
30/05:30pm 22.9 SE 2 3 1016.8 - 0.0 - - 10 - - - -
30/05:00pm 25.6 ESE 3 4 1016.7 - 0.0 - - 10 - - - -
30/04:30pm 27.4 E 3 5 1016.3 - 0.0 - - 10 - - - -
30/04:00pm 27.9 ENE 4 6 1016.1 - 0.0 - - 10 - - - -
30/03:30pm 28.1 ENE 5 9 1015.9 - 0.0 - - 10 - - - -
30/03:00pm 28.0 ENE 6 10 1016.0 - 0.0 - - 10 - - - -
30/02:30pm 27.8 ENE 6 10 1016.1 - 0.0 - - 10 - - - -
30/02:00pm 28.1 ENE 6 10 1016.2 - 0.0 - - 10 - - - -
30/01:30pm 28.4 E 5 10 1016.4 - 0.0 - - 10 - - - -
30/01:00pm 27.5 E 7 12 1016.9 - 0.0 - - 10 - - - -
30/12:30pm 27.4 ESE 7 11 1017.4 - 0.0 - - 10 - - - -
30/12:00pm 26.5 E 7 15 1017.8 - 0.0 - - 10 - - - -
30/11:30am 26.4 ESE 7 12 1018.4 - 0.0 - - 10 - - - -
30/11:00am 25.7 ESE 7 12 1018.8 - 0.0 - - 10 - - - -
30/10:30am 25.1 ESE 8 15 1019.0 - 0.0 - - 10 - - - -
30/10:00am 24.7 ESE 8 13 1019.2 - 0.0 - - 10 - - - -
30/09:30am 22.9 ESE 10 18 1019.5 - 0.0 - - 10 - - - -
30/09:00am 22.7 ESE 8 17 1019.2 - 0.0 - - 10 - - - -
30/08:30am 20.9 SE 7 13 1019.1 - 0.0 - - 10 - - - -
30/08:00am 19.6 SE 7 13 1018.9 - 0.0 - - 10 - - - -
30/07:30am 18.5 SE 5 9 1018.5 - 0.0 - - 10 - - - -
30/07:00am 17.1 SE 6 9 1018.2 - 0.0 - - 10 - - - -
30/06:30am 17.0 SSE 6 9 1017.7 - 0.0 - - 10 - - - -
30/06:00am 17.1 SSE 5 10 1017.6 - 0.0 - - 10 - - - -
30/05:30am 17.5 SSE 5 8 1017.3 - 0.0 - - 10 - - - -
30/05:00am 17.7 SE 5 9 1017.1 - 0.0 - - 10 - - - -
30/04:30am 17.4 SE 5 8 1017.0 - 0.0 - - 10 - - - -
30/04:00am 17.8 SE 5 8 1017.0 - 0.0 - - 10 - - - -
30/03:30am 17.8 SE 5 8 1016.9 - 0.0 - - 10 - - - -
30/03:00am 18.4 SE 5 8 1017.0 - 0.0 - - 10 - - - -
30/02:30am 18.1 SE 4 7 1017.2 - 0.0 - - 10 - - - -
30/02:00am 19.3 SE 4 8 1017.2 - 0.0 - - 10 - - - -
30/01:30am 20.0 SE 5 8 1017.3 - 0.0 - - 10 - - - -
30/01:00am 18.2 SSE 3 5 1017.5 - 0.0 - - 10 - - - -
30/12:30am 18.8 S 3 5 1017.7 - 0.0 - - 10 - - - -
30/12:00am 18.4 SSW 3 6 1017.8 - 0.0 - - 10 - - - -
 
Date/Time
WST
Temp

°C
Wind Pressure Rain
since 9am
mm
Weather Cloud Vis
km
Sea
Height
m
Swell
Dir
 
Speed
knots
Gust
knots
hPa Trend Height
m
Period
s
Dir
29/11:30pm 18.9 SSW 3 6 1017.9 - 0.0 - - 10 - - - -
29/11:00pm 19.4 SSW 3 6 1018.0 - 0.0 - - 10 - - - -
29/10:30pm 18.7 SSW 3 5 1018.3 - 0.0 - - 10 - - - -
29/10:00pm 18.2 SSW 3 5 1018.5 - 0.0 - - 10 - - - -
29/09:30pm 17.5 SSW 3 6 1018.5 - 0.0 - - 10 - - - -
29/09:00pm 17.7 CALM 0 1 1018.2 - 0.0 - - 10 - - - -
29/08:30pm 18.1 N 1 2 1018.0 - 0.0 - - 10 - - - -
29/08:00pm 17.8 N 1 2 1017.9 - 0.0 - - 10 - - - -
29/07:30pm 18.6 N 1 2 1017.6 - 0.0 - - 10 - - - -
29/07:00pm 18.4 NNE 1 2 1017.3 - 0.0 - - 10 - - - -
29/06:30pm 18.9 E 1 1 1017.1 - 0.0 - - 10 - - - -
29/06:00pm 19.8 E 1 2 1016.9 - 0.0 - - 10 - - - -
29/05:30pm 21.9 ENE 1 1 1016.7 - 0.0 - - 10 - - - -
29/05:00pm 24.7 ESE 2 3 1016.4 - 0.0 - - 10 - - - -
29/04:30pm 25.7 ESE 3 5 1016.2 - 0.0 - - 10 - - - -
29/04:00pm 26.6 ENE 4 6 1016.1 - 0.0 - - 10 - - - -
29/03:30pm 26.7 ENE 5 10 1015.9 - 0.0 - - 10 - - - -
29/03:00pm 26.7 ENE 5 11 1016.0 - 0.0 - - 10 - - - -
29/02:30pm 26.4 E 5 8 1016.2 - 0.0 - - 10 - - - -
29/02:00pm 26.4 E 5 11 1016.4 - 0.0 - - 10 - - - -
29/01:30pm 26.0 ESE 5 9 1016.7 - 0.0 - - 10 - - - -
29/01:00pm 25.8 ESE 6 10 1017.0 - 0.0 - - 10 - - - -
29/12:30pm 25.7 ESE 7 12 1017.4 - 0.0 - - 10 - - - -
29/12:00pm 25.0 ESE 8 12 1018.0 - 0.0 - - 10 - - - -
29/11:30am 25.3 ESE 9 14 1018.4 - 0.0 - - 10 - - - -
29/11:00am 24.5 SE 9 13 1018.7 - 0.0 - - 10 - - - -
29/10:30am 23.8 ESE 9 15 1019.1 - 0.0 - - 10 - - - -
29/10:00am 23.1 ESE 9 16 1019.4 - 0.0 - - 10 - - - -
29/09:30am 22.5 SE 8 14 1019.8 - 0.0 - - 10 - - - -
29/09:00am 21.5 SE 8 14 1019.8 - 0.0 - - 10 - - - -
29/08:30am 20.3 SE 7 11 1019.7 - 0.0 - - 10 - - - -
29/08:00am 18.9 SE 6 11 1019.4 - 0.0 - - 10 - - - -
29/07:30am 17.7 SE 6 10 1019.2 - 0.0 - - 10 - - - -
29/07:00am 17.2 SE 6 12 1019.0 - 0.0 - - 10 - - - -
29/06:30am 16.6 SE 5 9 1018.6 - 0.0 - - 10 - - - -
29/06:00am 16.7 SSE 5 9 1018.5 - 0.0 - - 10 - - - -
29/05:30am 16.7 SSE 5 8 1018.1 - 0.0 - - 10 - - - -
29/05:00am 16.9 SSE 5 9 1018.0 - 0.0 - - 10 - - - -
29/04:30am 17.2 SSE 5 8 1018.2 - 0.0 - - 10 - - - -
29/04:00am 17.7 SSE 4 7 1018.0 - 0.0 - - 10 - - - -
29/03:30am 18.1 S 3 7 1017.9 - 0.0 - - 10 - - - -
29/03:00am 17.3 S 3 7 1018.0 - 0.0 - - 10 - - - -
29/02:30am 16.4 SSW 3 6 1018.1 - 0.0 - - 10 - - - -
29/02:00am 17.1 SSW 3 5 1018.2 - 0.0 - - 10 - - - -
29/01:30am 16.2 SSW 3 7 1018.3 - 0.0 - - 10 - - - -
29/01:00am 16.9 SSW 2 4 1018.5 - 0.0 - - 10 - - - -
29/12:30am 17.6 SSW 3 5 1018.8 - 0.0 - - 10 - - - -
29/12:00am 17.2 S 3 5 1018.9 - 0.0 - - 10 - - - -
 
Date/Time
WST
Temp

°C
Wind Pressure Rain
since 9am
mm
Weather Cloud Vis
km
Sea
Height
m
Swell
Dir
 
Speed
knots
Gust
knots
hPa Trend Height
m
Period
s
Dir
28/11:30pm 17.0 S 3 5 1019.0 - 0.0 - - 10 - - - -
28/11:00pm 17.1 SSW 3 5 1019.1 - 0.0 - - 10 - - - -
28/10:30pm 17.8 SSW 3 5 1019.1 - 0.0 - - 10 - - - -
28/10:00pm 17.7 S 3 6 1019.2 - 0.0 - - 10 - - - -
28/09:30pm 16.9 SSW 4 6 1019.1 - 0.0 - - 10 - - - -
28/09:00pm 16.9 CALM 0 0 1018.9 - 0.0 - - 10 - - - -
28/08:30pm 17.0 SE 1 1 1018.9 - 0.0 - - 10 - - - -
28/08:00pm 16.5 SSE 1 1 1018.7 - 0.0 - - 10 - - - -
28/07:30pm 16.8 CALM 0 1 1018.4 - 0.0 - - 10 - - - -
28/07:00pm 18.1 ENE 2 2 1018.0 - 0.0 - - 10 - - - -
28/06:30pm 18.7 E 2 3 1017.6 - 0.0 - - 10 - - - -
28/06:00pm 20.2 E 3 4 1017.4 - 0.0 - - 10 - - - -
28/05:30pm 21.7 E 2 3 1017.1 - 0.0 - - 10 - - - -
28/05:00pm 24.2 ESE 2 3 1016.9 - 0.0 - - 10 - - - -
28/04:30pm 25.5 E 3 5 1016.9 - 0.0 - - 10 - - - -
28/04:00pm 26.2 E 4 6 1016.9 - 0.0 - - 10 - - - -
28/03:30pm 26.5 ENE 4 7 1017.0 - 0.0 - - 10 - - - -
28/03:00pm 26.7 E 4 7 1017.1 - 0.0 - - 10 - - - -
28/02:30pm 26.5 E 4 7 1017.5 - 0.0 - - 10 - - - -
28/02:00pm 26.6 ENE 3 7 1017.6 - 0.0 - - 10 - - - -
28/01:30pm 26.2 ENE 5 10 1017.8 - 0.0 - - 10 - - - -
28/01:00pm 26.1 E 5 9 1018.0 - 0.0 - - 10 - - - -
28/12:30pm 25.1 ESE 6 10 1018.4 - 0.0 - - 10 - - - -
28/12:00pm 25.1 E 7 12 1018.8 - 0.0 - - 10 - - - -
28/11:30am 24.8 ESE 8 14 1019.3 - 0.0 - - 10 - - - -
28/11:00am 23.9 E 9 14 1019.5 - 0.0 - - 10 - - - -
28/10:30am 24.0 ESE 9 15 1019.7 - 0.0 - - 10 - - - -
28/10:00am 23.7 ESE 9 15 1020.0 - 0.0 - - 10 - - - -
28/09:30am 23.2 SE 8 14 1020.3 - 0.0 - - 10 - - - -
28/09:00am 21.7 ESE 9 14 1020.4 - 0.0 - - 10 - - - -
28/08:30am 20.6 SE 8 13 1020.4 - 0.0 - - 10 - - - -
28/08:00am 18.7 SE 7 11 1020.2 - 0.0 - - 10 - - - -
28/07:30am 17.0 SE 7 11 1019.8 - 0.0 - - 10 - - - -
28/07:00am 16.3 SE 5 10 1019.8 - 0.0 - - 10 - - - -
28/06:30am 15.8 SE 6 10 1019.4 - 0.0 - - 10 - - - -
28/06:00am 15.9 SE 5 9 1019.0 - 0.0 - - 10 - - - -
28/05:30am 16.7 SE 5 9 1018.6 - 0.0 - - 10 - - - -
28/05:00am 16.7 SE 5 9 1018.4 - 0.0 - - 10 - - - -
28/04:30am 17.5 SE 6 10 1018.3 - 0.0 - - 10 - - - -
28/04:00am 17.4 SE 5 10 1018.3 - 0.0 - - 10 - - - -

Other Formats:

Comma delimited format used in spreadsheet applications
http://www.bom.gov.au/fwo/IDW60701/IDW60701.99206.axf

JavaScript Object Notation format (JSON) in row-major order
http://www.bom.gov.au/fwo/IDW60701/IDW60701.99206.json